sensor_id;sensor_type;location;lat;lon;timestamp;P1;durP1;ratioP1;P2;durP2;ratioP2
73276;SDS011;61501;43.316;5.372;2023-08-01T00:00:07;9.95;;;6.25;;
73276;SDS011;61501;43.316;5.372;2023-08-01T00:02:33;8.82;;;6.32;;
73276;SDS011;61501;43.316;5.372;2023-08-01T00:04:59;9.15;;;6.60;;
73276;SDS011;61501;43.316;5.372;2023-08-01T00:07:26;10.65;;;7.15;;
73276;SDS011;61501;43.316;5.372;2023-08-01T00:09:52;12.38;;;6.53;;
73276;SDS011;61501;43.316;5.372;2023-08-01T00:12:18;12.88;;;7.40;;
73276;SDS011;61501;43.316;5.372;2023-08-01T00:14:44;12.63;;;7.25;;
73276;SDS011;61501;43.316;5.372;2023-08-01T00:17:09;11.02;;;6.90;;
73276;SDS011;61501;43.316;5.372;2023-08-01T00:19:35;11.77;;;6.80;;
73276;SDS011;61501;43.316;5.372;2023-08-01T00:22:01;13.82;;;7.20;;
73276;SDS011;61501;43.316;5.372;2023-08-01T00:24:26;12.77;;;6.35;;
73276;SDS011;61501;43.316;5.372;2023-08-01T00:26:52;14.85;;;7.07;;
73276;SDS011;61501;43.316;5.372;2023-08-01T00:29:20;9.40;;;6.38;;
73276;SDS011;61501;43.316;5.372;2023-08-01T00:31:46;10.82;;;6.22;;
73276;SDS011;61501;43.316;5.372;2023-08-01T00:34:12;12.23;;;7.20;;
73276;SDS011;61501;43.316;5.372;2023-08-01T00:36:37;12.32;;;6.70;;
73276;SDS011;61501;43.316;5.372;2023-08-01T00:39:03;13.88;;;7.63;;
73276;SDS011;61501;43.316;5.372;2023-08-01T00:41:29;12.95;;;7.00;;
73276;SDS011;61501;43.316;5.372;2023-08-01T00:43:54;16.92;;;7.82;;
73276;SDS011;61501;43.316;5.372;2023-08-01T00:46:20;16.00;;;6.80;;
73276;SDS011;61501;43.316;5.372;2023-08-01T00:48:46;15.05;;;7.13;;
73276;SDS011;61501;43.316;5.372;2023-08-01T00:51:11;15.13;;;7.15;;
73276;SDS011;61501;43.316;5.372;2023-08-01T00:53:38;18.17;;;7.70;;
73276;SDS011;61501;43.316;5.372;2023-08-01T00:56:04;15.98;;;7.40;;
73276;SDS011;61501;43.316;5.372;2023-08-01T00:58:30;15.75;;;7.32;;
73276;SDS011;61501;43.316;5.372;2023-08-01T01:00:55;13.18;;;7.15;;
73276;SDS011;61501;43.316;5.372;2023-08-01T01:03:22;13.32;;;6.68;;
73276;SDS011;61501;43.316;5.372;2023-08-01T01:08:29;13.52;;;7.40;;
73276;SDS011;61501;43.316;5.372;2023-08-01T01:10:55;11.88;;;6.82;;
73276;SDS011;61501;43.316;5.372;2023-08-01T01:13:21;12.77;;;6.85;;
73276;SDS011;61501;43.316;5.372;2023-08-01T01:15:46;19.00;;;6.97;;
73276;SDS011;61501;43.316;5.372;2023-08-01T01:18:12;15.73;;;6.97;;
73276;SDS011;61501;43.316;5.372;2023-08-01T01:20:38;19.27;;;6.93;;
73276;SDS011;61501;43.316;5.372;2023-08-01T01:23:04;12.00;;;6.45;;
73276;SDS011;61501;43.316;5.372;2023-08-01T01:25:31;13.30;;;6.38;;
73276;SDS011;61501;43.316;5.372;2023-08-01T01:27:58;17.52;;;7.43;;
73276;SDS011;61501;43.316;5.372;2023-08-01T01:30:25;12.25;;;7.07;;
73276;SDS011;61501;43.316;5.372;2023-08-01T01:32:52;13.90;;;7.38;;
73276;SDS011;61501;43.316;5.372;2023-08-01T01:35:18;15.88;;;7.03;;
73276;SDS011;61501;43.316;5.372;2023-08-01T01:37:44;16.90;;;7.38;;
73276;SDS011;61501;43.316;5.372;2023-08-01T01:40:10;17.27;;;6.95;;
73276;SDS011;61501;43.316;5.372;2023-08-01T01:42:36;15.38;;;7.57;;
73276;SDS011;61501;43.316;5.372;2023-08-01T01:45:02;14.45;;;7.05;;
73276;SDS011;61501;43.316;5.372;2023-08-01T01:47:27;14.45;;;6.97;;
73276;SDS011;61501;43.316;5.372;2023-08-01T01:49:53;16.02;;;7.03;;
73276;SDS011;61501;43.316;5.372;2023-08-01T01:52:19;14.88;;;6.95;;
73276;SDS011;61501;43.316;5.372;2023-08-01T01:54:44;16.75;;;7.63;;
73276;SDS011;61501;43.316;5.372;2023-08-01T01:57:10;16.65;;;7.50;;
73276;SDS011;61501;43.316;5.372;2023-08-01T01:59:35;18.15;;;8.02;;
73276;SDS011;61501;43.316;5.372;2023-08-01T02:02:01;16.30;;;7.00;;
73276;SDS011;61501;43.316;5.372;2023-08-01T02:04:29;15.07;;;7.55;;
73276;SDS011;61501;43.316;5.372;2023-08-01T02:06:55;16.15;;;7.72;;
73276;SDS011;61501;43.316;5.372;2023-08-01T02:09:21;20.75;;;8.02;;
73276;SDS011;61501;43.316;5.372;2023-08-01T02:11:46;15.70;;;7.20;;
73276;SDS011;61501;43.316;5.372;2023-08-01T02:14:12;16.02;;;8.20;;
73276;SDS011;61501;43.316;5.372;2023-08-01T02:16:38;13.75;;;6.47;;
73276;SDS011;61501;43.316;5.372;2023-08-01T02:19:04;19.00;;;7.78;;
73276;SDS011;61501;43.316;5.372;2023-08-01T02:21:30;13.85;;;7.70;;
73276;SDS011;61501;43.316;5.372;2023-08-01T02:23:55;17.00;;;7.55;;
73276;SDS011;61501;43.316;5.372;2023-08-01T02:26:21;11.65;;;7.10;;
73276;SDS011;61501;43.316;5.372;2023-08-01T02:28:49;13.98;;;7.40;;
73276;SDS011;61501;43.316;5.372;2023-08-01T02:31:15;17.83;;;7.63;;
73276;SDS011;61501;43.316;5.372;2023-08-01T02:33:41;14.05;;;7.85;;
73276;SDS011;61501;43.316;5.372;2023-08-01T02:36:06;16.67;;;8.27;;
73276;SDS011;61501;43.316;5.372;2023-08-01T02:38:32;11.80;;;7.75;;
73276;SDS011;61501;43.316;5.372;2023-08-01T02:40:58;14.60;;;8.18;;
73276;SDS011;61501;43.316;5.372;2023-08-01T02:43:23;17.02;;;7.88;;
73276;SDS011;61501;43.316;5.372;2023-08-01T02:45:49;16.60;;;8.52;;
73276;SDS011;61501;43.316;5.372;2023-08-01T02:48:15;13.68;;;7.78;;
73276;SDS011;61501;43.316;5.372;2023-08-01T02:50:41;13.00;;;7.68;;
73276;SDS011;61501;43.316;5.372;2023-08-01T02:53:06;14.43;;;7.95;;
73276;SDS011;61501;43.316;5.372;2023-08-01T02:55:32;17.33;;;9.02;;
73276;SDS011;61501;43.316;5.372;2023-08-01T02:57:58;13.40;;;7.47;;
73276;SDS011;61501;43.316;5.372;2023-08-01T03:00:23;15.25;;;7.53;;
73276;SDS011;61501;43.316;5.372;2023-08-01T03:02:50;13.73;;;7.40;;
73276;SDS011;61501;43.316;5.372;2023-08-01T03:05:16;15.07;;;8.82;;
73276;SDS011;61501;43.316;5.372;2023-08-01T03:07:42;13.20;;;8.15;;
73276;SDS011;61501;43.316;5.372;2023-08-01T03:10:07;14.18;;;7.80;;
73276;SDS011;61501;43.316;5.372;2023-08-01T03:12:34;19.67;;;7.30;;
73276;SDS011;61501;43.316;5.372;2023-08-01T03:15:00;16.98;;;8.10;;
73276;SDS011;61501;43.316;5.372;2023-08-01T03:17:26;14.32;;;7.20;;
73276;SDS011;61501;43.316;5.372;2023-08-01T03:19:51;15.05;;;7.60;;
73276;SDS011;61501;43.316;5.372;2023-08-01T03:22:17;15.05;;;7.35;;
73276;SDS011;61501;43.316;5.372;2023-08-01T03:24:43;13.85;;;7.88;;
73276;SDS011;61501;43.316;5.372;2023-08-01T03:27:08;17.50;;;7.35;;
73276;SDS011;61501;43.316;5.372;2023-08-01T03:29:34;13.90;;;7.40;;
73276;SDS011;61501;43.316;5.372;2023-08-01T03:32:00;13.88;;;7.55;;
73276;SDS011;61501;43.316;5.372;2023-08-01T03:34:26;14.55;;;7.72;;
73276;SDS011;61501;43.316;5.372;2023-08-01T03:36:51;12.82;;;7.10;;
73276;SDS011;61501;43.316;5.372;2023-08-01T03:39:17;10.75;;;6.70;;
73276;SDS011;61501;43.316;5.372;2023-08-01T03:41:43;9.25;;;5.93;;
73276;SDS011;61501;43.316;5.372;2023-08-01T03:44:09;9.95;;;6.55;;
73276;SDS011;61501;43.316;5.372;2023-08-01T03:46:34;10.43;;;6.93;;
73276;SDS011;61501;43.316;5.372;2023-08-01T03:49:00;11.20;;;6.30;;
73276;SDS011;61501;43.316;5.372;2023-08-01T03:51:25;8.48;;;5.95;;
73276;SDS011;61501;43.316;5.372;2023-08-01T03:53:51;9.27;;;6.65;;
73276;SDS011;61501;43.316;5.372;2023-08-01T03:56:17;10.65;;;7.10;;
73276;SDS011;61501;43.316;5.372;2023-08-01T03:58:42;13.40;;;7.18;;
73276;SDS011;61501;43.316;5.372;2023-08-01T04:01:08;10.98;;;6.97;;
73276;SDS011;61501;43.316;5.372;2023-08-01T04:03:34;9.57;;;6.53;;
73276;SDS011;61501;43.316;5.372;2023-08-01T04:05:59;10.15;;;7.10;;
73276;SDS011;61501;43.316;5.372;2023-08-01T04:08:25;12.45;;;6.95;;
73276;SDS011;61501;43.316;5.372;2023-08-01T04:10:51;11.68;;;7.30;;
73276;SDS011;61501;43.316;5.372;2023-08-01T04:13:16;10.82;;;7.07;;
73276;SDS011;61501;43.316;5.372;2023-08-01T04:15:42;8.98;;;7.10;;
73276;SDS011;61501;43.316;5.372;2023-08-01T04:18:07;8.80;;;6.25;;
73276;SDS011;61501;43.316;5.372;2023-08-01T04:20:33;7.72;;;6.28;;
73276;SDS011;61501;43.316;5.372;2023-08-01T04:22:58;9.70;;;6.65;;
73276;SDS011;61501;43.316;5.372;2023-08-01T04:25:24;10.75;;;6.65;;
73276;SDS011;61501;43.316;5.372;2023-08-01T04:27:51;9.07;;;7.10;;
73276;SDS011;61501;43.316;5.372;2023-08-01T04:30:17;9.77;;;7.10;;
73276;SDS011;61501;43.316;5.372;2023-08-01T04:32:43;9.10;;;7.28;;
73276;SDS011;61501;43.316;5.372;2023-08-01T04:35:08;9.80;;;6.65;;
73276;SDS011;61501;43.316;5.372;2023-08-01T04:37:34;8.57;;;6.85;;
73276;SDS011;61501;43.316;5.372;2023-08-01T04:40:00;10.70;;;6.57;;
73276;SDS011;61501;43.316;5.372;2023-08-01T04:42:25;9.77;;;6.60;;
73276;SDS011;61501;43.316;5.372;2023-08-01T04:44:52;7.75;;;6.40;;
73276;SDS011;61501;43.316;5.372;2023-08-01T04:47:18;9.88;;;6.60;;
73276;SDS011;61501;43.316;5.372;2023-08-01T04:49:44;8.57;;;6.53;;
73276;SDS011;61501;43.316;5.372;2023-08-01T04:52:10;9.55;;;7.03;;
73276;SDS011;61501;43.316;5.372;2023-08-01T04:54:35;10.07;;;7.05;;
73276;SDS011;61501;43.316;5.372;2023-08-01T04:57:01;10.65;;;7.57;;
73276;SDS011;61501;43.316;5.372;2023-08-01T04:59:27;10.63;;;6.35;;
73276;SDS011;61501;43.316;5.372;2023-08-01T05:01:52;9.85;;;6.70;;
73276;SDS011;61501;43.316;5.372;2023-08-01T05:04:18;8.20;;;6.18;;
73276;SDS011;61501;43.316;5.372;2023-08-01T05:06:43;7.78;;;6.18;;
73276;SDS011;61501;43.316;5.372;2023-08-01T05:09:09;12.75;;;6.55;;
73276;SDS011;61501;43.316;5.372;2023-08-01T05:11:35;9.25;;;6.50;;
73276;SDS011;61501;43.316;5.372;2023-08-01T05:14:00;9.35;;;6.68;;
73276;SDS011;61501;43.316;5.372;2023-08-01T05:16:26;10.75;;;7.25;;
73276;SDS011;61501;43.316;5.372;2023-08-01T05:18:51;12.80;;;6.85;;
73276;SDS011;61501;43.316;5.372;2023-08-01T05:21:17;13.68;;;6.63;;
73276;SDS011;61501;43.316;5.372;2023-08-01T05:23:42;12.18;;;7.05;;
73276;SDS011;61501;43.316;5.372;2023-08-01T05:26:08;14.70;;;6.97;;
73276;SDS011;61501;43.316;5.372;2023-08-01T05:28:34;12.63;;;6.72;;
73276;SDS011;61501;43.316;5.372;2023-08-01T05:30:59;11.10;;;6.60;;
73276;SDS011;61501;43.316;5.372;2023-08-01T05:33:25;15.85;;;6.82;;
73276;SDS011;61501;43.316;5.372;2023-08-01T05:35:50;14.82;;;6.63;;
73276;SDS011;61501;43.316;5.372;2023-08-01T05:38:16;14.45;;;7.18;;
73276;SDS011;61501;43.316;5.372;2023-08-01T05:40:41;13.98;;;6.70;;
73276;SDS011;61501;43.316;5.372;2023-08-01T05:43:07;11.77;;;7.05;;
73276;SDS011;61501;43.316;5.372;2023-08-01T05:45:34;12.98;;;6.80;;
73276;SDS011;61501;43.316;5.372;2023-08-01T05:48:00;10.45;;;6.68;;
73276;SDS011;61501;43.316;5.372;2023-08-01T05:50:26;15.93;;;6.53;;
73276;SDS011;61501;43.316;5.372;2023-08-01T05:52:52;19.02;;;7.78;;
73276;SDS011;61501;43.316;5.372;2023-08-01T05:55:17;16.70;;;7.55;;
73276;SDS011;61501;43.316;5.372;2023-08-01T05:57:43;14.25;;;7.40;;
73276;SDS011;61501;43.316;5.372;2023-08-01T06:00:09;20.10;;;7.38;;
73276;SDS011;61501;43.316;5.372;2023-08-01T06:02:35;17.02;;;7.20;;
73276;SDS011;61501;43.316;5.372;2023-08-01T06:05:01;12.43;;;7.07;;
73276;SDS011;61501;43.316;5.372;2023-08-01T06:07:27;21.63;;;7.38;;
73276;SDS011;61501;43.316;5.372;2023-08-01T06:09:52;11.25;;;6.88;;
73276;SDS011;61501;43.316;5.372;2023-08-01T06:12:18;15.52;;;7.20;;
73276;SDS011;61501;43.316;5.372;2023-08-01T06:14:43;9.45;;;6.32;;
73276;SDS011;61501;43.316;5.372;2023-08-01T06:17:10;11.93;;;6.85;;
73276;SDS011;61501;43.316;5.372;2023-08-01T06:19:35;10.50;;;5.57;;
73276;SDS011;61501;43.316;5.372;2023-08-01T06:22:01;12.32;;;6.35;;
73276;SDS011;61501;43.316;5.372;2023-08-01T06:24:27;17.42;;;7.03;;
73276;SDS011;61501;43.316;5.372;2023-08-01T06:26:52;11.77;;;6.40;;
73276;SDS011;61501;43.316;5.372;2023-08-01T06:29:18;15.35;;;7.35;;
73276;SDS011;61501;43.316;5.372;2023-08-01T06:31:43;9.50;;;6.20;;
73276;SDS011;61501;43.316;5.372;2023-08-01T06:34:09;9.48;;;5.28;;
73276;SDS011;61501;43.316;5.372;2023-08-01T06:36:34;9.35;;;5.80;;
73276;SDS011;61501;43.316;5.372;2023-08-01T06:39:00;15.20;;;6.50;;
73276;SDS011;61501;43.316;5.372;2023-08-01T06:41:26;11.88;;;6.57;;
73276;SDS011;61501;43.316;5.372;2023-08-01T06:43:52;12.68;;;6.10;;
73276;SDS011;61501;43.316;5.372;2023-08-01T06:46:17;9.48;;;5.78;;
73276;SDS011;61501;43.316;5.372;2023-08-01T06:48:43;9.52;;;5.70;;
73276;SDS011;61501;43.316;5.372;2023-08-01T06:51:08;11.73;;;5.70;;
73276;SDS011;61501;43.316;5.372;2023-08-01T06:53:34;9.68;;;6.05;;
73276;SDS011;61501;43.316;5.372;2023-08-01T06:56:00;13.45;;;5.90;;
73276;SDS011;61501;43.316;5.372;2023-08-01T06:58:25;14.15;;;6.50;;
73276;SDS011;61501;43.316;5.372;2023-08-01T07:00:51;11.45;;;6.57;;
73276;SDS011;61501;43.316;5.372;2023-08-01T07:03:16;18.63;;;6.72;;
73276;SDS011;61501;43.316;5.372;2023-08-01T07:05:42;12.63;;;6.07;;
73276;SDS011;61501;43.316;5.372;2023-08-01T07:08:08;12.63;;;5.88;;
73276;SDS011;61501;43.316;5.372;2023-08-01T07:10:36;10.23;;;5.65;;
73276;SDS011;61501;43.316;5.372;2023-08-01T07:13:03;11.23;;;6.07;;
73276;SDS011;61501;43.316;5.372;2023-08-01T07:15:32;9.15;;;5.05;;
73276;SDS011;61501;43.316;5.372;2023-08-01T07:17:58;9.95;;;5.15;;
73276;SDS011;61501;43.316;5.372;2023-08-01T07:20:24;12.07;;;4.68;;
73276;SDS011;61501;43.316;5.372;2023-08-01T07:22:50;9.40;;;4.85;;
73276;SDS011;61501;43.316;5.372;2023-08-01T07:25:15;7.50;;;4.55;;
73276;SDS011;61501;43.316;5.372;2023-08-01T07:27:42;7.60;;;5.00;;
73276;SDS011;61501;43.316;5.372;2023-08-01T07:30:08;8.00;;;4.03;;
73276;SDS011;61501;43.316;5.372;2023-08-01T07:32:35;7.95;;;3.88;;
73276;SDS011;61501;43.316;5.372;2023-08-01T07:35:02;9.40;;;4.40;;
73276;SDS011;61501;43.316;5.372;2023-08-01T07:37:29;28.33;;;5.78;;
73276;SDS011;61501;43.316;5.372;2023-08-01T07:39:55;12.02;;;4.60;;
73276;SDS011;61501;43.316;5.372;2023-08-01T07:42:21;8.05;;;3.83;;
73276;SDS011;61501;43.316;5.372;2023-08-01T07:44:47;9.82;;;4.18;;
73276;SDS011;61501;43.316;5.372;2023-08-01T07:47:13;13.00;;;4.00;;
73276;SDS011;61501;43.316;5.372;2023-08-01T07:49:39;7.07;;;3.58;;
73276;SDS011;61501;43.316;5.372;2023-08-01T07:52:04;7.85;;;4.00;;
73276;SDS011;61501;43.316;5.372;2023-08-01T07:54:30;10.07;;;4.40;;
73276;SDS011;61501;43.316;5.372;2023-08-01T07:56:56;9.52;;;3.72;;
73276;SDS011;61501;43.316;5.372;2023-08-01T07:59:21;10.07;;;3.88;;
73276;SDS011;61501;43.316;5.372;2023-08-01T08:01:47;10.48;;;3.92;;
73276;SDS011;61501;43.316;5.372;2023-08-01T08:04:13;6.53;;;3.80;;
73276;SDS011;61501;43.316;5.372;2023-08-01T08:06:39;7.80;;;3.83;;
73276;SDS011;61501;43.316;5.372;2023-08-01T08:09:05;14.13;;;6.18;;
73276;SDS011;61501;43.316;5.372;2023-08-01T08:11:31;7.20;;;3.88;;
73276;SDS011;61501;43.316;5.372;2023-08-01T08:13:57;10.13;;;4.30;;
73276;SDS011;61501;43.316;5.372;2023-08-01T08:16:23;14.13;;;5.10;;
73276;SDS011;61501;43.316;5.372;2023-08-01T08:18:49;13.02;;;5.32;;
73276;SDS011;61501;43.316;5.372;2023-08-01T08:21:14;12.05;;;5.03;;
73276;SDS011;61501;43.316;5.372;2023-08-01T08:23:40;9.80;;;4.45;;
73276;SDS011;61501;43.316;5.372;2023-08-01T08:26:05;8.80;;;4.03;;
73276;SDS011;61501;43.316;5.372;2023-08-01T08:28:33;10.32;;;4.78;;
73276;SDS011;61501;43.316;5.372;2023-08-01T08:30:59;13.00;;;5.40;;
73276;SDS011;61501;43.316;5.372;2023-08-01T08:33:26;11.32;;;5.45;;
73276;SDS011;61501;43.316;5.372;2023-08-01T08:35:52;15.82;;;5.72;;
73276;SDS011;61501;43.316;5.372;2023-08-01T08:38:17;13.60;;;5.30;;
73276;SDS011;61501;43.316;5.372;2023-08-01T08:43:38;14.38;;;6.10;;
73276;SDS011;61501;43.316;5.372;2023-08-01T08:46:06;13.43;;;6.68;;
73276;SDS011;61501;43.316;5.372;2023-08-01T08:48:34;19.70;;;6.43;;
73276;SDS011;61501;43.316;5.372;2023-08-01T08:51:02;11.93;;;4.93;;
73276;SDS011;61501;43.316;5.372;2023-08-01T08:53:33;15.57;;;5.22;;
73276;SDS011;61501;43.316;5.372;2023-08-01T08:56:01;11.77;;;5.07;;
73276;SDS011;61501;43.316;5.372;2023-08-01T08:58:28;12.23;;;5.95;;
73276;SDS011;61501;43.316;5.372;2023-08-01T09:00:56;13.70;;;6.30;;
73276;SDS011;61501;43.316;5.372;2023-08-01T09:03:23;15.80;;;6.20;;
73276;SDS011;61501;43.316;5.372;2023-08-01T09:05:54;16.33;;;6.40;;
73276;SDS011;61501;43.316;5.372;2023-08-01T09:08:24;19.95;;;5.35;;
73276;SDS011;61501;43.316;5.372;2023-08-01T09:10:52;13.13;;;4.90;;
73276;SDS011;61501;43.316;5.372;2023-08-01T09:13:17;14.32;;;5.90;;
73276;SDS011;61501;43.316;5.372;2023-08-01T09:15:43;16.73;;;6.35;;
73276;SDS011;61501;43.316;5.372;2023-08-01T09:18:10;15.80;;;6.15;;
73276;SDS011;61501;43.316;5.372;2023-08-01T09:20:49;18.38;;;6.40;;
73276;SDS011;61501;43.316;5.372;2023-08-01T09:23:15;17.50;;;7.03;;
73276;SDS011;61501;43.316;5.372;2023-08-01T09:25:42;15.77;;;5.97;;
73276;SDS011;61501;43.316;5.372;2023-08-01T09:28:14;13.05;;;6.15;;
73276;SDS011;61501;43.316;5.372;2023-08-01T09:30:50;11.43;;;5.97;;
73276;SDS011;61501;43.316;5.372;2023-08-01T09:33:17;17.50;;;6.22;;
73276;SDS011;61501;43.316;5.372;2023-08-01T09:35:43;14.50;;;5.93;;
73276;SDS011;61501;43.316;5.372;2023-08-01T09:38:12;23.42;;;7.00;;
73276;SDS011;61501;43.316;5.372;2023-08-01T09:40:39;18.65;;;6.65;;
73276;SDS011;61501;43.316;5.372;2023-08-01T09:43:05;19.10;;;6.78;;
73276;SDS011;61501;43.316;5.372;2023-08-01T09:45:31;21.40;;;6.50;;
73276;SDS011;61501;43.316;5.372;2023-08-01T09:47:57;16.92;;;6.53;;
73276;SDS011;61501;43.316;5.372;2023-08-01T09:50:23;20.48;;;7.15;;
73276;SDS011;61501;43.316;5.372;2023-08-01T09:52:49;17.92;;;7.20;;
73276;SDS011;61501;43.316;5.372;2023-08-01T09:55:30;15.60;;;7.22;;
73276;SDS011;61501;43.316;5.372;2023-08-01T09:57:58;22.85;;;7.18;;
73276;SDS011;61501;43.316;5.372;2023-08-01T10:00:28;20.38;;;7.32;;
73276;SDS011;61501;43.316;5.372;2023-08-01T10:02:57;17.85;;;7.47;;
73276;SDS011;61501;43.316;5.372;2023-08-01T10:05:31;18.48;;;7.25;;
73276;SDS011;61501;43.316;5.372;2023-08-01T10:07:59;19.50;;;7.15;;
73276;SDS011;61501;43.316;5.372;2023-08-01T10:10:26;16.85;;;7.63;;
73276;SDS011;61501;43.316;5.372;2023-08-01T10:12:54;21.52;;;8.32;;
73276;SDS011;61501;43.316;5.372;2023-08-01T10:15:21;29.60;;;19.55;;
73276;SDS011;61501;43.316;5.372;2023-08-01T10:17:48;19.13;;;8.48;;
73276;SDS011;61501;43.316;5.372;2023-08-01T10:20:13;19.63;;;7.95;;
73276;SDS011;61501;43.316;5.372;2023-08-01T10:22:40;15.38;;;8.00;;
73276;SDS011;61501;43.316;5.372;2023-08-01T10:25:07;19.35;;;7.93;;
73276;SDS011;61501;43.316;5.372;2023-08-01T10:27:35;21.08;;;8.18;;
73276;SDS011;61501;43.316;5.372;2023-08-01T10:30:02;20.13;;;7.45;;
73276;SDS011;61501;43.316;5.372;2023-08-01T10:34:58;21.33;;;7.43;;
73276;SDS011;61501;43.316;5.372;2023-08-01T10:37:24;22.38;;;8.18;;
73276;SDS011;61501;43.316;5.372;2023-08-01T10:39:57;16.23;;;7.32;;
73276;SDS011;61501;43.316;5.372;2023-08-01T10:42:23;18.85;;;7.60;;
73276;SDS011;61501;43.316;5.372;2023-08-01T10:44:50;19.08;;;7.60;;
73276;SDS011;61501;43.316;5.372;2023-08-01T10:47:24;20.15;;;8.25;;
73276;SDS011;61501;43.316;5.372;2023-08-01T10:49:53;17.20;;;7.97;;
73276;SDS011;61501;43.316;5.372;2023-08-01T10:52:20;19.38;;;8.13;;
73276;SDS011;61501;43.316;5.372;2023-08-01T10:57:22;21.60;;;9.25;;
73276;SDS011;61501;43.316;5.372;2023-08-01T10:59:48;18.02;;;7.65;;
73276;SDS011;61501;43.316;5.372;2023-08-01T11:02:19;17.88;;;8.07;;
73276;SDS011;61501;43.316;5.372;2023-08-01T11:07:24;14.20;;;7.38;;
73276;SDS011;61501;43.316;5.372;2023-08-01T11:10:03;18.27;;;7.60;;
73276;SDS011;61501;43.316;5.372;2023-08-01T11:12:36;19.93;;;8.27;;
73276;SDS011;61501;43.316;5.372;2023-08-01T11:15:04;17.23;;;8.15;;
73276;SDS011;61501;43.316;5.372;2023-08-01T11:17:33;16.23;;;7.45;;
73276;SDS011;61501;43.316;5.372;2023-08-01T11:20:06;18.20;;;7.68;;
73276;SDS011;61501;43.316;5.372;2023-08-01T11:22:34;16.17;;;7.25;;
73276;SDS011;61501;43.316;5.372;2023-08-01T11:25:00;20.25;;;7.40;;
73276;SDS011;61501;43.316;5.372;2023-08-01T11:27:26;12.10;;;6.88;;
73276;SDS011;61501;43.316;5.372;2023-08-01T11:29:52;15.43;;;7.00;;
73276;SDS011;61501;43.316;5.372;2023-08-01T11:32:18;19.25;;;7.50;;
73276;SDS011;61501;43.316;5.372;2023-08-01T11:34:48;20.15;;;7.95;;
73276;SDS011;61501;43.316;5.372;2023-08-01T11:37:14;18.08;;;7.97;;
73276;SDS011;61501;43.316;5.372;2023-08-01T11:39:43;13.40;;;7.03;;
73276;SDS011;61501;43.316;5.372;2023-08-01T11:42:13;20.20;;;7.78;;
73276;SDS011;61501;43.316;5.372;2023-08-01T11:44:42;15.40;;;7.03;;
73276;SDS011;61501;43.316;5.372;2023-08-01T11:47:12;19.50;;;7.72;;
73276;SDS011;61501;43.316;5.372;2023-08-01T11:49:48;16.95;;;8.55;;
73276;SDS011;61501;43.316;5.372;2023-08-01T11:52:27;17.60;;;7.82;;
73276;SDS011;61501;43.316;5.372;2023-08-01T11:54:53;15.73;;;7.57;;
73276;SDS011;61501;43.316;5.372;2023-08-01T11:57:20;20.60;;;7.00;;
73276;SDS011;61501;43.316;5.372;2023-08-01T11:59:50;12.73;;;6.80;;
73276;SDS011;61501;43.316;5.372;2023-08-01T12:02:24;16.73;;;8.52;;
73276;SDS011;61501;43.316;5.372;2023-08-01T12:04:50;14.45;;;7.22;;
73276;SDS011;61501;43.316;5.372;2023-08-01T12:07:17;18.95;;;7.50;;
73276;SDS011;61501;43.316;5.372;2023-08-01T12:09:44;13.82;;;6.03;;
73276;SDS011;61501;43.316;5.372;2023-08-01T12:12:10;15.25;;;6.95;;
73276;SDS011;61501;43.316;5.372;2023-08-01T12:14:42;14.55;;;6.75;;
73276;SDS011;61501;43.316;5.372;2023-08-01T12:17:08;14.25;;;7.45;;
73276;SDS011;61501;43.316;5.372;2023-08-01T12:19:33;13.50;;;7.63;;
73276;SDS011;61501;43.316;5.372;2023-08-01T12:21:59;14.00;;;7.18;;
73276;SDS011;61501;43.316;5.372;2023-08-01T12:24:25;13.10;;;7.30;;
73276;SDS011;61501;43.316;5.372;2023-08-01T12:26:51;23.13;;;7.25;;
73276;SDS011;61501;43.316;5.372;2023-08-01T12:29:16;11.57;;;5.72;;
73276;SDS011;61501;43.316;5.372;2023-08-01T12:31:42;14.23;;;7.15;;
73276;SDS011;61501;43.316;5.372;2023-08-01T12:34:08;13.15;;;7.15;;
73276;SDS011;61501;43.316;5.372;2023-08-01T12:36:33;13.95;;;7.43;;
73276;SDS011;61501;43.316;5.372;2023-08-01T12:38:59;12.13;;;6.18;;
73276;SDS011;61501;43.316;5.372;2023-08-01T12:41:25;12.50;;;5.95;;
73276;SDS011;61501;43.316;5.372;2023-08-01T12:43:50;15.48;;;6.85;;
73276;SDS011;61501;43.316;5.372;2023-08-01T12:46:16;14.43;;;6.95;;
73276;SDS011;61501;43.316;5.372;2023-08-01T12:48:42;14.68;;;6.45;;
73276;SDS011;61501;43.316;5.372;2023-08-01T12:51:08;15.25;;;7.43;;
73276;SDS011;61501;43.316;5.372;2023-08-01T12:53:34;15.10;;;6.70;;
73276;SDS011;61501;43.316;5.372;2023-08-01T12:56:00;19.10;;;7.35;;
73276;SDS011;61501;43.316;5.372;2023-08-01T12:58:25;12.75;;;6.68;;
73276;SDS011;61501;43.316;5.372;2023-08-01T13:00:51;14.70;;;7.53;;
73276;SDS011;61501;43.316;5.372;2023-08-01T13:03:17;20.73;;;9.10;;
73276;SDS011;61501;43.316;5.372;2023-08-01T13:05:42;16.63;;;7.53;;
73276;SDS011;61501;43.316;5.372;2023-08-01T13:08:08;15.45;;;8.05;;
73276;SDS011;61501;43.316;5.372;2023-08-01T13:10:35;16.38;;;7.50;;
73276;SDS011;61501;43.316;5.372;2023-08-01T13:13:02;16.88;;;8.88;;
73276;SDS011;61501;43.316;5.372;2023-08-01T13:15:28;18.17;;;7.60;;
73276;SDS011;61501;43.316;5.372;2023-08-01T13:17:55;17.73;;;7.38;;
73276;SDS011;61501;43.316;5.372;2023-08-01T13:20:20;15.52;;;6.88;;
73276;SDS011;61501;43.316;5.372;2023-08-01T13:22:48;21.58;;;7.53;;
73276;SDS011;61501;43.316;5.372;2023-08-01T13:25:14;13.40;;;6.03;;
73276;SDS011;61501;43.316;5.372;2023-08-01T13:27:40;17.20;;;6.75;;
73276;SDS011;61501;43.316;5.372;2023-08-01T13:30:07;17.55;;;6.93;;
73276;SDS011;61501;43.316;5.372;2023-08-01T13:32:33;12.18;;;6.65;;
73276;SDS011;61501;43.316;5.372;2023-08-01T13:34:59;16.52;;;6.63;;
73276;SDS011;61501;43.316;5.372;2023-08-01T13:37:24;15.98;;;6.38;;
73276;SDS011;61501;43.316;5.372;2023-08-01T13:39:50;13.23;;;6.95;;
73276;SDS011;61501;43.316;5.372;2023-08-01T13:42:16;15.40;;;7.13;;
73276;SDS011;61501;43.316;5.372;2023-08-01T13:44:41;13.23;;;6.32;;
73276;SDS011;61501;43.316;5.372;2023-08-01T13:47:07;15.75;;;7.05;;
73276;SDS011;61501;43.316;5.372;2023-08-01T13:49:33;15.75;;;7.03;;
73276;SDS011;61501;43.316;5.372;2023-08-01T13:51:59;15.23;;;6.85;;
73276;SDS011;61501;43.316;5.372;2023-08-01T13:54:25;12.85;;;6.65;;
73276;SDS011;61501;43.316;5.372;2023-08-01T13:56:51;12.50;;;5.78;;
73276;SDS011;61501;43.316;5.372;2023-08-01T13:59:18;14.60;;;6.15;;
73276;SDS011;61501;43.316;5.372;2023-08-01T14:01:45;11.57;;;5.85;;
73276;SDS011;61501;43.316;5.372;2023-08-01T14:04:10;13.40;;;6.60;;
73276;SDS011;61501;43.316;5.372;2023-08-01T14:06:39;11.43;;;6.15;;
73276;SDS011;61501;43.316;5.372;2023-08-01T14:09:05;20.13;;;7.00;;
73276;SDS011;61501;43.316;5.372;2023-08-01T14:11:30;13.93;;;6.47;;
73276;SDS011;61501;43.316;5.372;2023-08-01T14:13:56;14.82;;;6.65;;
73276;SDS011;61501;43.316;5.372;2023-08-01T14:16:22;12.60;;;6.07;;
73276;SDS011;61501;43.316;5.372;2023-08-01T14:18:48;12.20;;;6.03;;
73276;SDS011;61501;43.316;5.372;2023-08-01T14:21:14;10.82;;;5.70;;
73276;SDS011;61501;43.316;5.372;2023-08-01T14:23:39;11.60;;;5.57;;
73276;SDS011;61501;43.316;5.372;2023-08-01T14:26:06;11.70;;;6.20;;
73276;SDS011;61501;43.316;5.372;2023-08-01T14:28:32;11.05;;;6.03;;
73276;SDS011;61501;43.316;5.372;2023-08-01T14:31:01;11.05;;;6.10;;
73276;SDS011;61501;43.316;5.372;2023-08-01T14:33:27;12.63;;;5.22;;
73276;SDS011;61501;43.316;5.372;2023-08-01T14:35:53;15.45;;;7.05;;
73276;SDS011;61501;43.316;5.372;2023-08-01T14:38:19;9.88;;;5.40;;
73276;SDS011;61501;43.316;5.372;2023-08-01T14:40:45;8.18;;;5.03;;
73276;SDS011;61501;43.316;5.372;2023-08-01T14:43:11;9.88;;;5.50;;